Time;durP1;ratioP1;P1;durP2;ratioP2;P2;SDS_P1;SDS_P2;PMS_P1;PMS_P2;Temp;Humidity;BMP_temperature;BMP_pressure;BME280_temperature;BME280_humidity;BME280_pressure;Samples;Min_cycle;Max_cycle;Signal;HPM_P1;HPM_P2
2023/02/21 02:13:58;;;;;;;;;;;;;;;7.90;100.00;-18240.75;5008109;28;19948;-84
2023/02/21 02:16:29;;;;;;;;;;;;;;;7.90;100.00;-18240.75;5012066;28;20385;-84
2023/02/21 02:19:04;;;;;;;;;;;;;;;7.88;100.00;-18240.34;5009453;28;20057;-85
2023/02/21 02:21:35;;;;;;;;;;;;;;;7.88;100.00;-18240.34;5009912;28;20267;-85
2023/02/21 02:24:09;;;;;;;;;;;;;;;7.87;100.00;-18239.91;5018829;28;19930;-84
2023/02/21 02:26:54;;;;;;;;;;;;;;;7.87;100.00;-18239.91;5014255;28;19922;-85
2023/02/21 02:29:39;;;;;;;;;;;;;;;7.86;100.00;-18239.78;5014527;28;20020;-84
2023/02/21 02:32:23;;;;;;;;;;;;;;;7.85;100.00;-18239.50;5012131;28;19925;-85
2023/02/21 02:34:52;;;;;;;;;;;;;;;7.86;100.00;-18239.78;5006771;28;19948;-83
2023/02/21 02:37:38;;;;;;;;;;;;;;;7.87;100.00;-18239.91;5010161;28;19921;-84
2023/02/21 02:40:08;;;;;;;;;;;;;;;7.87;100.00;-18240.06;5006601;28;20011;-83
2023/02/21 02:42:35;;;;;;;;;;;;;;;7.86;100.00;-18239.78;5007045;28;20044;-85
2023/02/21 02:45:10;;;;;;;;;;;;;;;7.86;100.00;-18239.78;5009046;28;20310;-85
2023/02/21 02:47:36;;;;;;;;;;;;;;;7.87;100.00;-18240.06;5010683;28;19921;-84
2023/02/21 02:50:02;;;;;;;;;;;;;;;7.86;100.00;-18239.78;5007726;28;19975;-85
2023/02/21 02:52:28;;;;;;;;;;;;;;;7.86;100.00;-18239.78;5010416;28;19925;-83
2023/02/21 02:55:00;;;;;;;;;;;;;;;7.86;100.00;-18239.66;5009946;28;20158;-84
2023/02/21 02:57:27;;;;;;;;;;;;;;;7.83;100.00;-18238.97;5005644;28;21001;-85
2023/02/21 02:59:52;;;;;;;;;;;;;;;7.82;100.00;-18238.53;5008188;28;20499;-84
2023/02/21 03:02:41;;;;;;;;;;;;;;;7.80;100.00;-18238.13;5009200;28;20108;-84
2023/02/21 03:05:32;;;;;;;;;;;;;;;7.81;100.00;-18238.28;4998152;28;20275;-84
2023/02/21 03:08:20;;;;;;;;;;;;;;;7.81;100.00;-18238.28;5006844;28;19936;-85
2023/02/21 03:10:51;;;;;;;;;;;;;;;7.79;100.00;-18237.84;5009978;28;19930;-85
2023/02/21 03:13:20;;;;;;;;;;;;;;;7.77;100.00;-18237.31;5004783;28;19933;-84
2023/02/21 03:15:45;;;;;;;;;;;;;;;7.79;100.00;-18237.72;5006022;28;20257;-85
2023/02/21 03:18:28;;;;;;;;;;;;;;;7.79;100.00;-18237.84;5005794;28;20429;-84
2023/02/21 03:20:55;;;;;;;;;;;;;;;7.79;100.00;-18237.84;5003578;28;19983;-84
2023/02/21 03:23:22;;;;;;;;;;;;;;;7.77;100.00;-18237.31;5010402;28;20028;-83
2023/02/21 03:25:49;;;;;;;;;;;;;;;7.75;100.00;-18236.75;5006025;28;20307;-84
2023/02/21 03:28:15;;;;;;;;;;;;;;;7.73;100.00;-18236.19;5007220;28;20386;-84
2023/02/21 03:30:41;;;;;;;;;;;;;;;7.76;100.00;-18237.03;5007357;28;19929;-84
2023/02/21 03:33:06;;;;;;;;;;;;;;;7.76;100.00;-18236.88;5004236;28;19976;-85
2023/02/21 03:35:32;;;;;;;;;;;;;;;7.77;100.00;-18237.16;5003717;28;20026;-84
2023/02/21 03:37:57;;;;;;;;;;;;;;;7.74;100.00;-18236.34;5006936;28;19921;-84
2023/02/21 03:40:30;;;;;;;;;;;;;;;7.74;100.00;-18236.34;5004513;28;20271;-84
2023/02/21 03:42:56;;;;;;;;;;;;;;;7.73;100.00;-18236.19;5000782;28;20036;-85
2023/02/21 03:45:21;;;;;;;;;;;;;;;7.74;100.00;-18236.47;5004298;28;19960;-85
2023/02/21 03:47:46;;;;;;;;;;;;;;;7.75;100.00;-18236.63;5003166;28;19937;-85
2023/02/21 03:50:12;;;;;;;;;;;;;;;7.75;100.00;-18236.63;5006055;28;20020;-82
2023/02/21 03:52:37;;;;;;;;;;;;;;;7.75;100.00;-18236.75;5005015;28;20457;-84
2023/02/21 03:55:03;;;;;;;;;;;;;;;7.73;100.00;-18236.19;5005390;28;20457;-84
2023/02/21 03:57:28;;;;;;;;;;;;;;;7.72;100.00;-18235.94;5005154;28;19928;-84
2023/02/21 03:59:53;;;;;;;;;;;;;;;7.71;100.00;-18235.66;5003751;28;19956;-83
2023/02/21 04:02:19;;;;;;;;;;;;;;;7.72;100.00;-18235.78;5006690;28;20305;-83
2023/02/21 04:04:47;;;;;;;;;;;;;;;7.71;100.00;-18235.66;4999905;28;20359;-82
2023/02/21 04:07:12;;;;;;;;;;;;;;;7.70;100.00;-18235.38;5002619;28;19921;-83
2023/02/21 04:09:37;;;;;;;;;;;;;;;7.71;100.00;-18235.66;5006646;28;20329;-85
2023/02/21 04:12:03;;;;;;;;;;;;;;;7.69;100.00;-18235.25;5003343;28;20148;-84
2023/02/21 04:14:28;;;;;;;;;;;;;;;7.68;100.00;-18234.97;5004631;28;19979;-85
2023/02/21 04:16:53;;;;;;;;;;;;;;;7.68;100.00;-18234.81;5004726;28;19921;-84
2023/02/21 04:19:19;;;;;;;;;;;;;;;7.68;100.00;-18234.81;5005690;28;19921;-84
2023/02/21 04:21:44;;;;;;;;;;;;;;;7.67;100.00;-18234.69;5004407;28;19976;-85
2023/02/21 04:24:09;;;;;;;;;;;;;;;7.65;100.00;-18234.13;5005353;28;19925;-85
2023/02/21 04:26:34;;;;;;;;;;;;;;;7.65;100.00;-18234.00;5005321;28;20367;-84
2023/02/21 04:29:00;;;;;;;;;;;;;;;7.64;100.00;-18233.84;5006553;28;20165;-85
2023/02/21 04:31:25;;;;;;;;;;;;;;;7.64;100.00;-18233.84;5003725;28;19932;-84
2023/02/21 04:33:51;;;;;;;;;;;;;;;7.64;100.00;-18233.72;5000406;28;20008;-84
2023/02/21 04:36:16;;;;;;;;;;;;;;;7.63;100.00;-18233.44;4989066;28;19928;-84
2023/02/21 04:38:41;;;;;;;;;;;;;;;7.61;100.00;-18233.03;5004973;28;19925;-85
2023/02/21 04:41:06;;;;;;;;;;;;;;;7.61;100.00;-18233.03;5010270;28;19968;-84
2023/02/21 04:43:32;;;;;;;;;;;;;;;7.62;100.00;-18233.16;5007811;28;19960;-84
2023/02/21 04:45:57;;;;;;;;;;;;;;;7.60;100.00;-18232.63;5003766;28;19983;-84
2023/02/21 04:48:22;;;;;;;;;;;;;;;7.60;100.00;-18232.75;5007508;28;19925;-84
2023/02/21 04:50:48;;;;;;;;;;;;;;;7.59;100.00;-18232.47;5001967;28;20017;-84
2023/02/21 04:53:13;;;;;;;;;;;;;;;7.58;100.00;-18232.22;5008106;28;19925;-84
2023/02/21 04:55:38;;;;;;;;;;;;;;;7.59;100.00;-18232.34;5001467;28;20291;-83
2023/02/21 04:58:03;;;;;;;;;;;;;;;7.59;100.00;-18232.34;5010840;28;19928;-84
2023/02/21 05:00:29;;;;;;;;;;;;;;;7.57;100.00;-18231.94;5009308;28;20342;-84
2023/02/21 05:02:54;;;;;;;;;;;;;;;7.56;100.00;-18231.53;5009365;28;20391;-85
2023/02/21 05:05:19;;;;;;;;;;;;;;;7.54;100.00;-18230.97;5004403;28;19928;-85
2023/02/21 05:07:45;;;;;;;;;;;;;;;7.54;100.00;-18230.97;5000950;28;20004;-83
2023/02/21 05:10:10;;;;;;;;;;;;;;;7.52;100.00;-18230.41;5012467;28;19932;-85
2023/02/21 05:12:38;;;;;;;;;;;;;;;7.50;100.00;-18230.00;5021501;28;20005;-85
2023/02/21 05:15:04;;;;;;;;;;;;;;;7.49;100.00;-18229.72;5012766;28;19927;-85
2023/02/21 05:17:30;;;;;;;;;;;;;;;7.52;100.00;-18230.41;5008310;28;19957;-82
2023/02/21 05:19:55;;;;;;;;;;;;;;;7.49;100.00;-18229.59;5012687;28;20382;-84
2023/02/21 05:22:21;;;;;;;;;;;;;;;7.47;100.00;-18229.31;5013007;28;19928;-83
2023/02/21 05:24:47;;;;;;;;;;;;;;;7.46;100.00;-18228.91;5009788;28;19926;-85
2023/02/21 05:27:15;;;;;;;;;;;;;;;7.44;100.00;-18228.34;5012393;28;19925;-85
2023/02/21 05:29:41;;;;;;;;;;;;;;;7.43;100.00;-18228.22;5005687;28;19922;-84
2023/02/21 05:32:07;;;;;;;;;;;;;;;7.43;100.00;-18228.22;5006897;28;20197;-84
2023/02/21 05:34:32;;;;;;;;;;;;;;;7.43;100.00;-18228.06;5005767;28;19930;-85
2023/02/21 05:36:57;;;;;;;;;;;;;;;7.41;100.00;-18227.66;5009299;28;19927;-85
2023/02/21 05:39:23;;;;;;;;;;;;;;;7.41;100.00;-18227.66;5010728;28;20353;-83
2023/02/21 05:41:49;;;;;;;;;;;;;;;7.40;100.00;-18227.38;5002905;28;20276;-84
2023/02/21 05:44:14;;;;;;;;;;;;;;;7.40;100.00;-18227.25;5012637;28;20381;-82
2023/02/21 05:46:39;;;;;;;;;;;;;;;7.40;100.00;-18227.38;5005045;28;19930;-85
2023/02/21 05:49:05;;;;;;;;;;;;;;;7.39;100.00;-18227.13;5009944;28;19921;-85
2023/02/21 05:51:35;;;;;;;;;;;;;;;7.39;100.00;-18227.13;5010866;28;19926;-84
2023/02/21 05:54:00;;;;;;;;;;;;;;;7.41;100.00;-18227.53;5007951;28;20556;-84
2023/02/21 05:56:25;;;;;;;;;;;;;;;7.40;100.00;-18227.25;5010092;28;20016;-85
2023/02/21 05:58:51;;;;;;;;;;;;;;;7.38;100.00;-18226.84;5005572;28;20285;-85
2023/02/21 06:01:16;;;;;;;;;;;;;;;7.37;100.00;-18226.56;5012237;28;19921;-85
2023/02/21 06:03:42;;;;;;;;;;;;;;;7.37;100.00;-18226.56;5007264;28;19918;-83
2023/02/21 06:06:07;;;;;;;;;;;;;;;7.37;100.00;-18226.44;5008463;28;19921;-83
2023/02/21 06:08:40;;;;;;;;;;;;;;;7.37;100.00;-18226.44;5007330;28;20473;-83
2023/02/21 06:11:05;;;;;;;;;;;;;;;7.37;100.00;-18226.44;5028277;28;19940;-84
2023/02/21 06:13:30;;;;;;;;;;;;;;;7.36;100.00;-18226.16;5008831;28;19921;-82
2023/02/21 06:15:56;;;;;;;;;;;;;;;7.37;100.00;-18226.44;5008485;28;19921;-84
2023/02/21 06:18:21;;;;;;;;;;;;;;;7.37;100.00;-18226.44;5006305;28;19953;-84
2023/02/21 06:20:46;;;;;;;;;;;;;;;7.36;100.00;-18226.28;4987456;28;20022;-84
2023/02/21 06:23:11;;;;;;;;;;;;;;;7.35;100.00;-18225.88;5006231;28;19956;-85
2023/02/21 06:25:37;;;;;;;;;;;;;;;7.36;100.00;-18226.16;5004121;28;19952;-86
2023/02/21 06:28:02;;;;;;;;;;;;;;;7.35;100.00;-18226.00;5002996;28;20204;-84
2023/02/21 06:30:27;;;;;;;;;;;;;;;7.36;100.00;-18226.28;5005691;28;20036;-83
2023/02/21 06:32:52;;;;;;;;;;;;;;;7.35;100.00;-18226.00;5005594;28;19929;-82
2023/02/21 06:35:18;;;;;;;;;;;;;;;7.34;100.00;-18225.59;5009346;28;19932;-85
2023/02/21 06:37:43;;;;;;;;;;;;;;;7.34;100.00;-18225.72;5007056;28;19921;-83
2023/02/21 06:40:08;;;;;;;;;;;;;;;7.34;100.00;-18197.75;5007312;28;19926;-85
2023/02/21 06:42:35;;;;;;;;;;;;;;;7.34;100.00;-18182.22;5004596;28;19922;-84
2023/02/21 06:45:01;;;;;;;;;;;;;;;7.34;100.00;-18166.81;5006973;28;19925;-83
2023/02/21 06:47:26;;;;;;;;;;;;;;;7.35;100.00;-18174.72;5007252;28;19975;-85
2023/02/21 06:49:51;;;;;;;;;;;;;;;7.34;100.00;-18145.94;5003821;28;19949;-83
2023/02/21 06:52:16;;;;;;;;;;;;;;;7.35;100.00;-18154.13;5006502;28;19948;-84
2023/02/21 06:54:42;;;;;;;;;;;;;;;7.34;100.00;-18146.09;5002173;28;19982;-84
2023/02/21 06:57:07;;;;;;;;;;;;;;;7.34;100.00;-18127.81;5010001;28;19952;-83
2023/02/21 06:59:32;;;;;;;;;;;;;;;7.33;100.00;-18122.50;5011061;28;19925;-84
2023/02/21 07:01:58;;;;;;;;;;;;;;;7.34;100.00;-18145.94;5003658;28;19972;-83
2023/02/21 07:04:24;;;;;;;;;;;;;;;7.34;100.00;-18117.59;5001394;28;20386;-84
2023/02/21 07:06:49;;;;;;;;;;;;;;;7.35;100.00;-18122.91;5002813;28;19932;-83
2023/02/21 07:09:14;;;;;;;;;;;;;;;7.34;100.00;-18114.88;5006656;28;20556;-83
2023/02/21 07:11:40;;;;;;;;;;;;;;;7.34;100.00;-18114.88;5003485;28;19926;-85
2023/02/21 07:14:05;;;;;;;;;;;;;;;7.34;100.00;-18107.25;5007833;28;19956;-84
2023/02/21 07:16:30;;;;;;;;;;;;;;;7.34;100.00;-18104.66;5003689;28;19928;-83
2023/02/21 07:18:56;;;;;;;;;;;;;;;7.32;100.00;-18114.31;5007317;28;19932;-85
2023/02/21 07:21:21;;;;;;;;;;;;;;;7.33;100.00;-18068.09;5010233;28;20309;-83
2023/02/21 07:23:47;;;;;;;;;;;;;;;7.33;100.00;-18042.06;5007313;28;20374;-83
2023/02/21 07:26:12;;;;;;;;;;;;;;;7.33;100.00;-18023.94;5010182;28;20287;-85
2023/02/21 07:28:38;;;;;;;;;;;;;;;7.33;100.00;-18003.34;5007788;28;19918;-83
2023/02/21 07:31:03;;;;;;;;;;;;;;;7.33;100.00;-17995.59;5005148;28;19922;-84
2023/02/21 07:33:29;;;;;;;;;;;;;;;7.33;100.00;-17993.00;5002058;28;19921;-84
2023/02/21 07:35:54;;;;;;;;;;;;;;;7.33;100.00;-18005.81;5005270;28;19921;-85
2023/02/21 07:38:24;;;;;;;;;;;;;;;7.33;100.00;-17915.28;5003682;28;19929;-83
2023/02/21 07:40:49;;;;;;;;;;;;;;;7.34;100.00;-17881.91;5003979;28;19929;-83
2023/02/21 07:43:14;;;;;;;;;;;;;;;7.32;100.00;-17883.94;5008528;28;19921;-85
2023/02/21 07:45:40;;;;;;;;;;;;;;;7.32;100.00;-17855.44;5007904;28;19928;-84
2023/02/21 07:48:05;;;;;;;;;;;;;;;7.34;100.00;-17861.16;5003325;28;19968;-84
2023/02/21 07:50:30;;;;;;;;;;;;;;;7.34;100.00;-17871.41;5005339;28;19922;-84
2023/02/21 07:52:55;;;;;;;;;;;;;;;7.32;100.00;-17863.22;5003636;28;19930;-84
2023/02/21 07:55:21;;;;;;;;;;;;;;;7.33;100.00;-17860.91;5007017;28;20337;-84
2023/02/21 07:57:46;;;;;;;;;;;;;;;7.34;100.00;-17843.03;5008097;28;19921;-84
2023/02/21 08:00:11;;;;;;;;;;;;;;;7.33;100.00;-17855.59;5018240;28;19921;-84
2023/02/21 08:02:37;;;;;;;;;;;;;;;7.32;100.00;-17845.09;5008153;28;19922;-85
2023/02/21 08:05:03;;;;;;;;;;;;;;;7.30;100.00;-17847.13;5011488;28;19926;-84
2023/02/21 08:07:29;;;;;;;;;;;;;;;7.31;100.00;-17839.63;5009472;28;19944;-85
2023/02/21 08:09:54;;;;;;;;;;;;;;;7.33;100.00;-17821.91;4986463;28;20406;-85
2023/02/21 08:12:19;;;;;;;;;;;;;;;7.34;100.00;-17850.69;5020779;28;19936;-86
2023/02/21 08:14:45;;;;;;;;;;;;;;;7.30;100.00;-17813.47;5013594;28;19953;-85
2023/02/21 08:17:12;;;;;;;;;;;;;;;7.30;100.00;-17766.72;5014123;28;19917;-84
2023/02/21 08:19:38;;;;;;;;;;;;;;;7.30;100.00;-17746.00;5007812;28;19921;-85
2023/02/21 08:22:03;;;;;;;;;;;;;;;7.30;100.00;-17694.19;5009814;28;19928;-85
2023/02/21 08:24:28;;;;;;;;;;;;;;;7.31;100.00;-17660.91;5010292;28;19929;-85
2023/02/21 08:26:53;;;;;;;;;;;;;;;7.31;100.00;-17590.97;5003345;28;20075;-85
2023/02/21 08:29:19;;;;;;;;;;;;;;;7.33;100.00;-17578.56;5012434;28;19957;-84
2023/02/21 08:31:45;;;;;;;;;;;;;;;7.32;100.00;-17560.16;5007383;28;19925;-85
2023/02/21 08:34:10;;;;;;;;;;;;;;;7.31;100.00;-17565.06;5007522;28;19944;-85
2023/02/21 08:36:37;;;;;;;;;;;;;;;7.30;100.00;-17523.34;5012693;28;20012;-85
2023/02/21 08:39:03;;;;;;;;;;;;;;;7.32;100.00;-17552.25;5010496;28;19987;-85
2023/02/21 08:41:39;;;;;;;;;;;;;;;7.31;100.00;-17552.13;5005721;28;20291;-84
2023/02/21 08:44:05;;;;;;;;;;;;;;;7.32;100.00;-17539.31;5004948;28;19972;-84
2023/02/21 08:46:30;;;;;;;;;;;;;;;7.33;100.00;-17539.56;4994730;28;19925;-84
2023/02/21 08:48:55;;;;;;;;;;;;;;;7.33;100.00;-17534.38;5009404;28;19926;-85
2023/02/21 08:51:25;;;;;;;;;;;;;;;7.30;100.00;-17523.34;5012265;28;19928;-85
2023/02/21 08:53:50;;;;;;;;;;;;;;;7.31;100.00;-17451.09;5008486;28;19929;-84
2023/02/21 08:56:22;;;;;;;;;;;;;;;7.34;100.00;-17480.25;5002681;28;19977;-85
2023/02/21 08:58:47;;;;;;;;;;;;;;;7.35;100.00;-17457.31;5006756;28;19976;-85
2023/02/21 09:01:13;;;;;;;;;;;;;;;7.34;100.00;-17482.97;5008031;28;20016;-85
2023/02/21 09:03:38;;;;;;;;;;;;;;;7.36;100.00;-17462.78;5008146;28;19924;-84
2023/02/21 09:06:03;;;;;;;;;;;;;;;7.37;100.00;-17483.75;5010008;28;20008;-85
2023/02/21 09:08:29;;;;;;;;;;;;;;;7.38;100.00;-17484.03;5006116;28;19921;-84
2023/02/21 09:10:59;;;;;;;;;;;;;;;7.39;100.00;-17466.16;5010502;28;19922;-84
2023/02/21 09:13:24;;;;;;;;;;;;;;;7.40;100.00;-17484.41;5006579;28;19936;-84
2023/02/21 09:15:49;;;;;;;;;;;;;;;7.40;100.00;-17523.41;5000392;28;19930;-85
2023/02/21 09:18:15;;;;;;;;;;;;;;;7.40;100.00;-17461.09;5005699;28;19925;-84
2023/02/21 09:20:41;;;;;;;;;;;;;;;7.43;100.00;-17487.94;5005011;28;19960;-84
2023/02/21 09:23:06;;;;;;;;;;;;;;;7.41;100.00;-17487.28;5012094;28;19917;-84
2023/02/21 09:25:32;;;;;;;;;;;;;;;7.42;100.00;-17497.91;5012959;28;19925;-84
2023/02/21 09:27:59;;;;;;;;;;;;;;;7.39;100.00;-17541.28;5008199;28;19925;-84
2023/02/21 09:30:25;;;;;;;;;;;;;;;7.39;100.00;-17541.16;5006361;28;19922;-83
2023/02/21 09:32:51;;;;;;;;;;;;;;;7.37;100.00;-17587.38;5001054;28;19928;-84
2023/02/21 09:35:16;;;;;;;;;;;;;;;7.40;100.00;-17595.81;5005423;28;20317;-84
2023/02/21 09:37:42;;;;;;;;;;;;;;;7.41;100.00;-17663.56;5005496;28;19977;-84
2023/02/21 09:40:30;;;;;;;;;;;;;;;7.42;100.00;-17648.31;4993349;28;20564;-84
2023/02/21 09:42:57;;;;;;;;;;;;;;;7.45;100.00;-17661.91;5004389;28;19917;-84
2023/02/21 09:45:23;;;;;;;;;;;;;;;7.45;100.00;-17667.09;4990986;28;20468;-84
2023/02/21 09:47:52;;;;;;;;;;;;;;;7.42;100.00;-17562.81;5000597;28;19917;-84
2023/02/21 09:50:19;;;;;;;;;;;;;;;7.43;100.00;-17547.38;4990049;28;19925;-84
2023/02/21 09:52:44;;;;;;;;;;;;;;;7.43;100.00;-17568.25;4987043;28;20439;-84
2023/02/21 09:55:18;;;;;;;;;;;;;;;7.42;100.00;-17640.53;5007176;28;19924;-84
2023/02/21 09:57:44;;;;;;;;;;;;;;;7.43;100.00;-17565.66;5008654;28;19967;-84
2023/02/21 10:00:16;;;;;;;;;;;;;;;7.47;100.00;-17543.41;5010886;28;19925;-85
2023/02/21 10:02:52;;;;;;;;;;;;;;;7.47;100.00;-17584.84;5005501;28;20295;-84
2023/02/21 10:05:21;;;;;;;;;;;;;;;7.48;100.00;-17566.84;5008518;28;19918;-84
2023/02/21 10:08:16;;;;;;;;;;;;;;;7.46;100.00;-17582.00;5010485;28;19925;-84
2023/02/21 10:10:44;;;;;;;;;;;;;;;7.45;100.00;-17682.78;5005547;28;19922;-83
2023/02/21 10:13:15;;;;;;;;;;;;;;;7.46;100.00;-17664.91;5001677;28;19925;-84
2023/02/21 10:15:43;;;;;;;;;;;;;;;7.49;100.00;-17600.66;5005448;28;19928;-84
2023/02/21 10:18:18;;;;;;;;;;;;;;;7.46;100.00;-17680.44;5009151;28;19972;-85
2023/02/21 10:21:01;;;;;;;;;;;;;;;7.50;100.00;-17681.25;5010474;28;19933;-84
2023/02/21 10:23:35;;;;;;;;;;;;;;;7.52;100.00;-17681.78;5008097;28;19965;-85
2023/02/21 10:26:06;;;;;;;;;;;;;;;7.53;100.00;-17689.81;5012546;28;19917;-85
2023/02/21 10:28:31;;;;;;;;;;;;;;;7.53;100.00;-17695.13;4995929;28;19929;-84
2023/02/21 10:31:01;;;;;;;;;;;;;;;7.53;100.00;-17700.31;5004894;28;20155;-84
2023/02/21 10:33:26;;;;;;;;;;;;;;;7.55;100.00;-17711.09;5014467;28;19917;-85
2023/02/21 10:35:53;;;;;;;;;;;;;;;7.57;100.00;-17672.75;5011733;28;20423;-85
2023/02/21 10:38:20;;;;;;;;;;;;;;;7.56;100.00;-17675.06;5013207;28;19923;-86
2023/02/21 10:40:49;;;;;;;;;;;;;;;7.56;100.00;-17701.13;5013748;28;19941;-86
2023/02/21 10:43:33;;;;;;;;;;;;;;;7.47;100.00;-17786.94;5012812;28;19925;-84
2023/02/21 10:46:14;;;;;;;;;;;;;;;7.46;100.00;-17807.41;5004257;28;20330;-84
2023/02/21 10:48:41;;;;;;;;;;;;;;;7.46;100.00;-17817.78;5013581;28;19968;-85
2023/02/21 10:51:26;;;;;;;;;;;;;;;7.46;100.00;-17817.78;5014394;28;19929;-84
2023/02/21 10:53:52;;;;;;;;;;;;;;;7.43;100.00;-17832.50;5013414;28;19927;-85
2023/02/21 10:56:17;;;;;;;;;;;;;;;7.46;100.00;-17820.38;5014634;28;19997;-85
2023/02/21 10:59:05;;;;;;;;;;;;;;;7.47;100.00;-17818.03;5000803;28;20412;-84
2023/02/21 11:01:32;;;;;;;;;;;;;;;7.47;100.00;-17797.31;5001819;28;19956;-86
2023/02/21 11:03:59;;;;;;;;;;;;;;;7.45;100.00;-17796.63;5010051;28;19921;-85
2023/02/21 11:06:30;;;;;;;;;;;;;;;7.44;100.00;-17817.22;5002718;28;19979;-87
2023/02/21 11:08:59;;;;;;;;;;;;;;;7.43;100.00;-17850.66;5008307;28;19929;-85
2023/02/21 11:11:31;;;;;;;;;;;;;;;7.44;100.00;-17850.91;5013064;28;20067;-86
2023/02/21 11:14:23;;;;;;;;;;;;;;;7.43;100.00;-17858.41;5010815;28;19918;-86
2023/02/21 11:17:03;;;;;;;;;;;;;;;7.45;100.00;-17853.78;5008162;28;19971;-86
2023/02/21 11:19:40;;;;;;;;;;;;;;;7.50;100.00;-17818.56;5012868;28;19924;-85
2023/02/21 11:22:07;;;;;;;;;;;;;;;7.47;100.00;-17817.91;5012019;28;19965;-85
2023/02/21 11:24:33;;;;;;;;;;;;;;;7.45;100.00;-17830.47;5012175;28;19922;-84
2023/02/21 11:26:58;;;;;;;;;;;;;;;7.44;100.00;-17856.09;5007272;28;19922;-84
2023/02/21 11:29:26;;;;;;;;;;;;;;;7.44;100.00;-17858.53;5007317;28;19992;-86
2023/02/21 11:31:52;;;;;;;;;;;;;;;7.49;100.00;-17823.50;5027177;28;20321;-85
2023/02/21 11:34:18;;;;;;;;;;;;;;;7.48;100.00;-17818.19;5004426;28;19918;-84
2023/02/21 11:36:45;;;;;;;;;;;;;;;7.51;100.00;-17818.84;5012774;28;20287;-84
2023/02/21 11:39:28;;;;;;;;;;;;;;;7.48;100.00;-17797.44;5010766;28;19971;-85
2023/02/21 11:41:57;;;;;;;;;;;;;;;7.46;100.00;-17833.31;5012217;28;19975;-85
2023/02/21 11:44:24;;;;;;;;;;;;;;;7.45;100.00;-17848.44;5008143;28;21267;-86
2023/02/21 11:46:53;;;;;;;;;;;;;;;7.50;100.00;-17792.66;5011970;28;19921;-85
2023/02/21 11:49:24;;;;;;;;;;;;;;;7.49;100.00;-17800.31;5012483;28;20357;-85
2023/02/21 11:51:53;;;;;;;;;;;;;;;7.45;100.00;-17830.47;5012053;28;20200;-85
2023/02/21 11:54:21;;;;;;;;;;;;;;;7.48;100.00;-17836.31;5009341;28;19921;-85
2023/02/21 11:57:05;;;;;;;;;;;;;;;7.47;100.00;-17823.22;5012680;28;19926;-85
2023/02/21 11:59:49;;;;;;;;;;;;;;;7.46;100.00;-17877.34;5012716;28;20375;-85
2023/02/21 12:02:38;;;;;;;;;;;;;;;7.44;100.00;-17915.53;5007967;28;19927;-86
2023/02/21 12:05:17;;;;;;;;;;;;;;;7.41;100.00;-18010.59;5011908;28;20305;-86
2023/02/21 12:07:45;;;;;;;;;;;;;;;7.41;100.00;-18002.81;5012623;28;19918;-85
2023/02/21 12:10:11;;;;;;;;;;;;;;;7.39;100.00;-18020.41;5011656;28;20355;-85
2023/02/21 12:12:39;;;;;;;;;;;;;;;7.40;100.00;-17984.41;4998719;28;19957;-85
2023/02/21 12:15:15;;;;;;;;;;;;;;;7.43;100.00;-17975.00;5004751;28;19917;-85
2023/02/21 12:17:59;;;;;;;;;;;;;;;7.46;100.00;-17926.59;5011239;28;19975;-86
2023/02/21 12:20:32;;;;;;;;;;;;;;;7.45;100.00;-17921.13;5005860;28;19968;-85
2023/02/21 12:23:13;;;;;;;;;;;;;;;7.47;100.00;-17898.34;5002958;28;19921;-86
2023/02/21 12:25:39;;;;;;;;;;;;;;;7.50;100.00;-17880.88;5003472;28;19953;-84
2023/02/21 12:28:10;;;;;;;;;;;;;;;7.52;100.00;-17870.94;5010208;28;19929;-86
2023/02/21 12:30:54;;;;;;;;;;;;;;;7.50;100.00;-17896.31;5003439;28;19965;-86
2023/02/21 12:33:38;;;;;;;;;;;;;;;7.49;100.00;-17927.13;5021099;28;20469;-86
2023/02/21 12:36:12;;;;;;;;;;;;;;;7.51;100.00;-17995.03;5010606;28;19917;-87
2023/02/21 12:38:59;;;;;;;;;;;;;;;7.47;100.00;-18030.47;5009875;28;19917;-86
2023/02/21 12:41:47;;;;;;;;;;;;;;;7.51;100.00;-18033.88;4982179;28;20621;-84
2023/02/21 12:44:14;;;;;;;;;;;;;;;7.54;100.00;-18001.03;4980501;28;20512;-85
2023/02/21 12:47:05;;;;;;;;;;;;;;;7.55;100.00;-18004.03;4984972;28;20085;-84
2023/02/21 12:49:45;;;;;;;;;;;;;;;7.54;100.00;-18019.16;4971322;28;20718;-86
2023/02/21 12:52:14;;;;;;;;;;;;;;;7.51;100.00;-18070.31;4985301;28;20023;-85
2023/02/21 12:55:02;;;;;;;;;;;;;;;7.56;100.00;-18061.16;4986903;28;19922;-86
2023/02/21 12:57:33;;;;;;;;;;;;;;;7.55;100.00;-18097.16;4943500;28;19925;-85
2023/02/21 13:00:21;;;;;;;;;;;;;;;7.55;100.00;-18120.63;4969535;28;20005;-85
2023/02/21 13:02:58;;;;;;;;;;;;;;;7.56;100.00;-18144.22;4984335;28;19930;-85
2023/02/21 13:05:41;;;;;;;;;;;;;;;7.60;100.00;-18129.63;4984828;28;19926;-84
2023/02/21 13:08:27;;;;;;;;;;;;;;;7.63;100.00;-18122.81;4967581;28;19969;-86
2023/02/21 13:10:57;;;;;;;;;;;;;;;7.60;100.00;-18127.16;4969356;28;19922;-86
2023/02/21 13:13:26;;;;;;;;;;;;;;;7.56;100.00;-18172.56;5002542;28;19921;-86
2023/02/21 13:15:52;;;;;;;;;;;;;;;7.60;100.00;-18160.72;5006602;28;19917;-87
2023/02/21 13:18:26;;;;;;;;;;;;;;;7.59;100.00;-18188.94;5009809;28;19972;-85
2023/02/21 13:20:53;;;;;;;;;;;;;;;7.57;100.00;-18217.03;5009536;28;20184;-86
2023/02/21 13:26:40;;;;;;;;;;;;;;;7.62;100.00;-18233.31;5028811;28;19932;-85
2023/02/21 13:29:18;;;;;;;;;;;;;;;7.67;100.00;-18234.56;5005901;28;19925;-85
2023/02/21 13:31:44;;;;;;;;;;;;;;;7.72;100.00;-18235.78;5006728;28;19929;-86
2023/02/21 13:34:11;;;;;;;;;;;;;;;7.74;100.00;-18236.47;5004511;28;19925;-85
2023/02/21 13:36:36;;;;;;;;;;;;;;;7.75;100.00;-18236.75;5012536;28;20490;-85
2023/02/21 13:39:08;;;;;;;;;;;;;;;7.80;100.00;-18238.13;5016063;28;19917;-85
2023/02/21 13:41:34;;;;;;;;;;;;;;;7.77;100.00;-18237.31;5012028;28;19925;-86
2023/02/21 13:44:03;;;;;;;;;;;;;;;7.86;100.00;-18239.78;5005390;28;19922;-86
2023/02/21 13:46:29;;;;;;;;;;;;;;;7.89;100.00;-18240.59;4998853;28;19929;-86
2023/02/21 13:49:13;;;;;;;;;;;;;;;7.79;100.00;-18237.84;5004056;28;20539;-83
2023/02/21 13:51:49;;;;;;;;;;;;;;;7.79;100.00;-18237.84;5010029;28;20333;-86
2023/02/21 13:54:20;;;;;;;;;;;;;;;7.77;100.00;-18237.31;5010112;28;19987;-86
2023/02/21 13:56:47;;;;;;;;;;;;;;;7.80;100.00;-18238.00;5008928;28;19925;-85
2023/02/21 13:59:21;;;;;;;;;;;;;;;7.77;100.00;-18237.31;5012863;28;20282;-86
2023/02/21 14:01:48;;;;;;;;;;;;;;;7.78;100.00;-18237.44;5011833;28;19971;-85
2023/02/21 14:04:32;;;;;;;;;;;;;;;7.82;100.00;-18238.53;5014294;28;20153;-85
2023/02/21 14:06:58;;;;;;;;;;;;;;;7.84;100.00;-18239.22;5011564;28;19945;-86
2023/02/21 14:09:23;;;;;;;;;;;;;;;7.85;100.00;-18239.50;5014684;28;19925;-84
2023/02/21 14:12:30;;;;;;;;;;;;;;;7.84;100.00;-18239.22;4999968;28;19926;-86
2023/02/21 14:15:32;;;;;;;;;;;;;;;;;;;;;
2023/02/21 14:18:27;;;;;;;;;;;;;;;7.82;100.00;-18238.53;4964873;28;19918;-86
2023/02/21 14:20:59;;;;;;;;;;;;;;;7.85;100.00;-18239.38;4881938;29;19963;-87
2023/02/21 14:23:54;;;;;;;;;;;;;;;7.82;100.00;-18238.53;4817450;29;2217191;-86
2023/02/21 14:29:30;;;;;;;;;;;;;;;7.79;100.00;-18237.84;4705533;29;3993349;-86
2023/02/21 14:32:15;;;;;;;;;;;;;;;7.82;100.00;-18238.69;4769125;29;3825093;-87
2023/02/21 14:34:44;;;;;;;;;;;;;;;7.84;100.00;-18239.22;4756315;29;2128204;-85
2023/02/21 14:37:15;;;;;;;;;;;;;;;7.84;100.00;-18239.22;4895156;29;42871;-86
2023/02/21 14:43:02;;;;;;;;;;;;;;;7.90;100.00;-18240.88;4632608;29;4016138;-85
2023/02/21 14:45:46;;;;;;;;;;;;;;;7.86;100.00;-18239.66;4820444;29;19925;-86
2023/02/21 14:48:16;;;;;;;;;;;;;;;7.84;100.00;-18239.22;4828511;29;20023;-85
2023/02/21 14:51:02;;;;;;;;;;;;;;;7.85;100.00;-18239.50;4833024;29;19928;-85
2023/02/21 14:53:48;;;;;;;;;;;;;;;7.84;100.00;-18239.22;4882113;29;20019;-85
2023/02/21 14:56:52;;;;;;;;;;;;;;;7.87;100.00;-18239.91;4888128;28;19927;-86
2023/02/21 14:59:39;;;;;;;;;;;;;;;7.87;100.00;-18240.06;4858433;29;19920;-86
2023/02/21 15:02:47;;;;;;;;;;;;;;;7.86;100.00;-18239.78;4850309;29;19960;-86
2023/02/21 15:05:19;;;;;;;;;;;;;;;7.89;100.00;-18240.59;4592751;29;3998766;-86
2023/02/21 15:07:50;;;;;;;;;;;;;;;7.89;100.00;-18240.59;4866713;29;20385;-85
2023/02/21 15:11:33;;;;;;;;;;;;;;;7.92;100.00;-18241.31;5079650;27;20342;-85
2023/02/21 15:14:13;;;;;;;;;;;;;;;7.90;100.00;-18240.88;5067506;28;19921;-84
2023/02/21 15:16:45;;;;;;;;;;;;;;;7.90;100.00;-18240.75;5058684;28;19917;-84